Terminal Aerodrome Forecast
Issued by NWS

Home | Current Version | Previous Version | Text Only | Print | Product List | Glossary On
Versions: 1 2 3 4 5 6 7 8 9 10 11 12 13
268
FTPA31 PHFO 181728
TAFHJH
TAF
PHJH 181728Z 1818/1918 03014G20KT P6SM VCSH FEW030 SCT045
     FM182100 04022G30KT P6SM VCSH FEW030 SCT045
     FM190500 04018G26KT P6SM VCSH FEW030 SCT045
      AMD NOT SKED 1904/1916=

USA.gov is the U.S. government's official web portal to all federal, state and local government web resources and services.